sensor_id;sensor_type;location;lat;lon;timestamp;pressure;altitude;pressure_sealevel;temperature;humidity
19457;BME280;9867;48.094;11.478;2023-04-05T00:01:04;95599.19;;;-1.36;100.00
19457;BME280;9867;48.094;11.478;2023-04-05T00:03:33;95599.78;;;-1.44;100.00
19457;BME280;9867;48.094;11.478;2023-04-05T00:06:02;95591.31;;;-1.43;100.00
19457;BME280;9867;48.094;11.478;2023-04-05T00:08:31;95596.78;;;-1.38;100.00
19457;BME280;9867;48.094;11.478;2023-04-05T00:11:00;95589.13;;;-1.47;100.00
19457;BME280;9867;48.094;11.478;2023-04-05T00:13:28;95591.75;;;-1.38;100.00
19457;BME280;9867;48.094;11.478;2023-04-05T00:15:56;95579.75;;;-1.45;100.00
19457;BME280;9867;48.094;11.478;2023-04-05T00:18:26;95586.16;;;-1.41;100.00
19457;BME280;9867;48.094;11.478;2023-04-05T00:21:00;95582.59;;;-1.50;100.00
19457;BME280;9867;48.094;11.478;2023-04-05T00:23:28;95579.97;;;-1.48;100.00
19457;BME280;9867;48.094;11.478;2023-04-05T00:26:04;95586.06;;;-1.28;100.00
19457;BME280;9867;48.094;11.478;2023-04-05T00:28:33;95575.84;;;-1.38;100.00
19457;BME280;9867;48.094;11.478;2023-04-05T00:31:02;95574.72;;;-1.45;100.00
19457;BME280;9867;48.094;11.478;2023-04-05T00:33:30;95579.66;;;-1.44;100.00
19457;BME280;9867;48.094;11.478;2023-04-05T00:36:10;95577.81;;;-1.30;100.00
19457;BME280;9867;48.094;11.478;2023-04-05T00:38:39;95581.00;;;-1.40;100.00
19457;BME280;9867;48.094;11.478;2023-04-05T00:41:09;95577.81;;;-1.30;100.00
19457;BME280;9867;48.094;11.478;2023-04-05T00:43:38;95577.03;;;-1.31;100.00
19457;BME280;9867;48.094;11.478;2023-04-05T00:46:07;95576.66;;;-1.38;100.00
19457;BME280;9867;48.094;11.478;2023-04-05T00:48:35;95562.91;;;-1.56;100.00
19457;BME280;9867;48.094;11.478;2023-04-05T00:51:03;95559.84;;;-1.37;100.00
19457;BME280;9867;48.094;11.478;2023-04-05T00:53:34;95570.06;;;-1.05;100.00
19457;BME280;9867;48.094;11.478;2023-04-05T00:56:03;95560.66;;;-1.14;100.00
19457;BME280;9867;48.094;11.478;2023-04-05T00:58:33;95560.22;;;-1.30;100.00
19457;BME280;9867;48.094;11.478;2023-04-05T01:01:03;95549.28;;;-1.64;100.00
19457;BME280;9867;48.094;11.478;2023-04-05T01:03:34;95552.38;;;-1.72;100.00
19457;BME280;9867;48.094;11.478;2023-04-05T01:06:15;95551.44;;;-1.82;100.00
19457;BME280;9867;48.094;11.478;2023-04-05T01:09:04;95548.22;;;-1.95;100.00
19457;BME280;9867;48.094;11.478;2023-04-05T01:11:38;95539.25;;;-2.11;100.00
19457;BME280;9867;48.094;11.478;2023-04-05T01:14:08;95542.78;;;-2.13;100.00
19457;BME280;9867;48.094;11.478;2023-04-05T01:16:36;95542.56;;;-2.10;100.00
19457;BME280;9867;48.094;11.478;2023-04-05T01:19:03;95533.66;;;-2.14;100.00
19457;BME280;9867;48.094;11.478;2023-04-05T01:21:54;95534.47;;;-2.02;100.00
19457;BME280;9867;48.094;11.478;2023-04-05T01:24:50;95541.88;;;-1.55;100.00
19457;BME280;9867;48.094;11.478;2023-04-05T01:27:21;95536.84;;;-1.55;100.00
19457;BME280;9867;48.094;11.478;2023-04-05T01:29:59;95527.09;;;-1.82;100.00
19457;BME280;9867;48.094;11.478;2023-04-05T01:32:48;95535.06;;;-1.88;100.00
19457;BME280;9867;48.094;11.478;2023-04-05T01:35:32;95529.50;;;-1.91;100.00
19457;BME280;9867;48.094;11.478;2023-04-05T01:38:06;95526.13;;;-2.14;100.00
19457;BME280;9867;48.094;11.478;2023-04-05T01:40:39;95520.13;;;-2.24;100.00
19457;BME280;9867;48.094;11.478;2023-04-05T01:43:12;95519.44;;;-2.50;100.00
19457;BME280;9867;48.094;11.478;2023-04-05T01:45:42;95514.84;;;-2.56;100.00
19457;BME280;9867;48.094;11.478;2023-04-05T01:48:11;95511.66;;;-2.58;100.00
19457;BME280;9867;48.094;11.478;2023-04-05T01:50:39;95499.09;;;-2.58;100.00
19457;BME280;9867;48.094;11.478;2023-04-05T01:53:08;95504.13;;;-2.58;100.00
19457;BME280;9867;48.094;11.478;2023-04-05T01:55:36;95499.94;;;-2.47;100.00
19457;BME280;9867;48.094;11.478;2023-04-05T01:58:04;95502.69;;;-2.50;100.00
19457;BME280;9867;48.094;11.478;2023-04-05T02:00:31;95500.56;;;-2.32;100.00
19457;BME280;9867;48.094;11.478;2023-04-05T02:03:01;95501.97;;;-2.28;100.00
19457;BME280;9867;48.094;11.478;2023-04-05T02:05:29;95488.38;;;-2.36;100.00
19457;BME280;9867;48.094;11.478;2023-04-05T02:07:56;95502.63;;;-2.37;100.00
19457;BME280;9867;48.094;11.478;2023-04-05T02:10:24;95490.81;;;-2.48;100.00
19457;BME280;9867;48.094;11.478;2023-04-05T02:12:53;95491.84;;;-2.50;100.00
19457;BME280;9867;48.094;11.478;2023-04-05T02:15:22;95496.66;;;-2.47;100.00
19457;BME280;9867;48.094;11.478;2023-04-05T02:17:49;95491.72;;;-2.49;100.00
19457;BME280;9867;48.094;11.478;2023-04-05T02:20:21;95489.31;;;-2.50;100.00
19457;BME280;9867;48.094;11.478;2023-04-05T02:22:51;95492.72;;;-2.62;100.00
19457;BME280;9867;48.094;11.478;2023-04-05T02:25:19;95499.25;;;-2.72;100.00
19457;BME280;9867;48.094;11.478;2023-04-05T02:27:47;95490.81;;;-2.71;100.00
19457;BME280;9867;48.094;11.478;2023-04-05T02:30:15;95491.00;;;-2.62;100.00
19457;BME280;9867;48.094;11.478;2023-04-05T02:32:43;95481.78;;;-2.74;100.00
19457;BME280;9867;48.094;11.478;2023-04-05T02:35:11;95476.97;;;-2.53;100.00
19457;BME280;9867;48.094;11.478;2023-04-05T02:37:40;95486.13;;;-2.52;100.00
19457;BME280;9867;48.094;11.478;2023-04-05T02:40:12;95471.38;;;-2.57;100.00
19457;BME280;9867;48.094;11.478;2023-04-05T02:42:40;95470.34;;;-2.54;100.00
19457;BME280;9867;48.094;11.478;2023-04-05T02:45:09;95472.16;;;-2.56;100.00
19457;BME280;9867;48.094;11.478;2023-04-05T02:47:39;95475.47;;;-2.56;100.00
19457;BME280;9867;48.094;11.478;2023-04-05T02:50:07;95466.78;;;-2.63;100.00
19457;BME280;9867;48.094;11.478;2023-04-05T02:52:42;95466.44;;;-2.58;100.00
19457;BME280;9867;48.094;11.478;2023-04-05T02:55:10;95460.06;;;-2.62;100.00
19457;BME280;9867;48.094;11.478;2023-04-05T02:57:38;95458.09;;;-2.70;100.00
19457;BME280;9867;48.094;11.478;2023-04-05T03:00:19;95459.00;;;-2.71;100.00
19457;BME280;9867;48.094;11.478;2023-04-05T03:02:48;95461.94;;;-2.77;100.00
19457;BME280;9867;48.094;11.478;2023-04-05T03:05:16;95455.97;;;-2.87;100.00
19457;BME280;9867;48.094;11.478;2023-04-05T03:07:50;95459.63;;;-2.80;100.00
19457;BME280;9867;48.094;11.478;2023-04-05T03:10:23;95468.09;;;-3.18;100.00
19457;BME280;9867;48.094;11.478;2023-04-05T03:13:00;95461.38;;;-3.17;100.00
19457;BME280;9867;48.094;11.478;2023-04-05T03:15:30;95459.47;;;-3.14;100.00
19457;BME280;9867;48.094;11.478;2023-04-05T03:18:04;95463.69;;;-3.14;100.00
19457;BME280;9867;48.094;11.478;2023-04-05T03:20:32;95456.91;;;-3.01;100.00
19457;BME280;9867;48.094;11.478;2023-04-05T03:23:09;95460.28;;;-2.89;100.00
19457;BME280;9867;48.094;11.478;2023-04-05T03:25:37;95456.75;;;-2.87;100.00
19457;BME280;9867;48.094;11.478;2023-04-05T03:28:08;95461.63;;;-2.72;100.00
19457;BME280;9867;48.094;11.478;2023-04-05T03:30:40;95460.31;;;-2.54;100.00
19457;BME280;9867;48.094;11.478;2023-04-05T03:33:16;95464.59;;;-2.32;100.00
19457;BME280;9867;48.094;11.478;2023-04-05T03:35:47;95457.25;;;-2.00;100.00
19457;BME280;9867;48.094;11.478;2023-04-05T03:38:16;95459.25;;;-2.28;100.00
19457;BME280;9867;48.094;11.478;2023-04-05T03:41:03;95443.41;;;-2.63;100.00
19457;BME280;9867;48.094;11.478;2023-04-05T03:43:33;95457.13;;;-2.80;100.00
19457;BME280;9867;48.094;11.478;2023-04-05T03:46:01;95452.31;;;-2.83;100.00
19457;BME280;9867;48.094;11.478;2023-04-05T03:48:30;95445.47;;;-2.81;100.00
19457;BME280;9867;48.094;11.478;2023-04-05T03:50:57;95452.88;;;-2.91;100.00
19457;BME280;9867;48.094;11.478;2023-04-05T03:53:27;95453.56;;;-2.89;100.00
19457;BME280;9867;48.094;11.478;2023-04-05T03:55:56;95452.19;;;-2.82;100.00
19457;BME280;9867;48.094;11.478;2023-04-05T03:58:39;95443.88;;;-2.82;100.00
19457;BME280;9867;48.094;11.478;2023-04-05T04:01:07;95448.44;;;-2.87;100.00
19457;BME280;9867;48.094;11.478;2023-04-05T04:03:36;95446.94;;;-2.90;100.00
19457;BME280;9867;48.094;11.478;2023-04-05T04:06:06;95447.75;;;-2.89;100.00
19457;BME280;9867;48.094;11.478;2023-04-05T04:08:35;95442.34;;;-2.96;100.00
19457;BME280;9867;48.094;11.478;2023-04-05T04:11:03;95436.13;;;-3.03;100.00
19457;BME280;9867;48.094;11.478;2023-04-05T04:13:37;95453.66;;;-2.90;100.00
19457;BME280;9867;48.094;11.478;2023-04-05T04:16:13;95441.44;;;-2.95;100.00
19457;BME280;9867;48.094;11.478;2023-04-05T04:18:52;95444.84;;;-2.96;100.00
19457;BME280;9867;48.094;11.478;2023-04-05T04:21:20;95447.34;;;-2.96;100.00
19457;BME280;9867;48.094;11.478;2023-04-05T04:24:10;95438.75;;;-3.04;100.00
19457;BME280;9867;48.094;11.478;2023-04-05T04:27:05;95446.72;;;-3.11;100.00
19457;BME280;9867;48.094;11.478;2023-04-05T04:29:48;95446.28;;;-3.04;100.00
19457;BME280;9867;48.094;11.478;2023-04-05T04:32:31;95452.63;;;-3.12;100.00
19457;BME280;9867;48.094;11.478;2023-04-05T04:35:26;95438.63;;;-3.27;100.00
19457;BME280;9867;48.094;11.478;2023-04-05T04:38:13;95449.94;;;-3.08;100.00
19457;BME280;9867;48.094;11.478;2023-04-05T04:41:09;95445.84;;;-2.98;100.00
19457;BME280;9867;48.094;11.478;2023-04-05T04:43:56;95443.66;;;-3.03;100.00
19457;BME280;9867;48.094;11.478;2023-04-05T04:46:37;95444.84;;;-3.20;100.00
19457;BME280;9867;48.094;11.478;2023-04-05T04:49:34;95443.97;;;-3.31;100.00
19457;BME280;9867;48.094;11.478;2023-04-05T04:52:04;95443.13;;;-3.19;100.00
19457;BME280;9867;48.094;11.478;2023-04-05T04:54:33;95450.06;;;-3.23;100.00
19457;BME280;9867;48.094;11.478;2023-04-05T04:57:02;95448.72;;;-3.16;100.00
19457;BME280;9867;48.094;11.478;2023-04-05T04:59:30;95433.50;;;0.08;100.00
19457;BME280;9867;48.094;11.478;2023-04-05T05:02:01;95449.91;;;2.47;100.00
19457;BME280;9867;48.094;11.478;2023-04-05T05:04:29;95440.47;;;3.21;100.00
19457;BME280;9867;48.094;11.478;2023-04-05T05:06:57;95442.78;;;3.32;100.00
19457;BME280;9867;48.094;11.478;2023-04-05T05:09:26;95445.66;;;2.74;100.00
19457;BME280;9867;48.094;11.478;2023-04-05T05:11:57;95457.94;;;2.69;100.00
19457;BME280;9867;48.094;11.478;2023-04-05T05:14:26;95456.53;;;2.11;100.00
19457;BME280;9867;48.094;11.478;2023-04-05T05:16:54;95444.56;;;2.03;100.00
19457;BME280;9867;48.094;11.478;2023-04-05T05:19:27;95446.03;;;1.96;100.00
19457;BME280;9867;48.094;11.478;2023-04-05T05:21:56;95448.44;;;1.97;100.00
19457;BME280;9867;48.094;11.478;2023-04-05T05:24:23;95451.50;;;2.01;100.00
19457;BME280;9867;48.094;11.478;2023-04-05T05:26:53;95442.09;;;4.01;100.00
19457;BME280;9867;48.094;11.478;2023-04-05T05:29:21;95451.94;;;1.39;100.00
19457;BME280;9867;48.094;11.478;2023-04-05T05:31:51;95460.38;;;-0.23;100.00
19457;BME280;9867;48.094;11.478;2023-04-05T05:34:20;95456.13;;;-1.29;100.00
19457;BME280;9867;48.094;11.478;2023-04-05T05:36:51;95459.78;;;-1.78;100.00
19457;BME280;9867;48.094;11.478;2023-04-05T05:39:20;95459.44;;;-1.96;100.00
19457;BME280;9867;48.094;11.478;2023-04-05T05:41:49;95463.19;;;-2.01;100.00
19457;BME280;9867;48.094;11.478;2023-04-05T05:44:18;95460.22;;;-2.07;100.00
19457;BME280;9867;48.094;11.478;2023-04-05T05:46:46;95466.47;;;-2.12;100.00
19457;BME280;9867;48.094;11.478;2023-04-05T05:49:16;95460.81;;;-1.92;100.00
19457;BME280;9867;48.094;11.478;2023-04-05T05:51:44;95460.72;;;-1.79;100.00
19457;BME280;9867;48.094;11.478;2023-04-05T05:54:12;95467.34;;;-1.56;100.00
19457;BME280;9867;48.094;11.478;2023-04-05T05:56:39;95471.09;;;-1.61;100.00
19457;BME280;9867;48.094;11.478;2023-04-05T05:59:07;95478.91;;;-1.42;100.00
19457;BME280;9867;48.094;11.478;2023-04-05T06:01:37;95465.50;;;-1.20;100.00
19457;BME280;9867;48.094;11.478;2023-04-05T06:04:08;95465.38;;;-1.08;100.00
19457;BME280;9867;48.094;11.478;2023-04-05T06:06:36;95461.25;;;-0.13;100.00
19457;BME280;9867;48.094;11.478;2023-04-05T06:09:04;95467.56;;;0.03;100.00
19457;BME280;9867;48.094;11.478;2023-04-05T06:11:32;95468.44;;;0.43;100.00
19457;BME280;9867;48.094;11.478;2023-04-05T06:14:06;95465.28;;;0.51;100.00
19457;BME280;9867;48.094;11.478;2023-04-05T06:16:34;95475.38;;;0.51;100.00
19457;BME280;9867;48.094;11.478;2023-04-05T06:19:04;95479.25;;;0.55;100.00
19457;BME280;9867;48.094;11.478;2023-04-05T06:21:31;95480.91;;;0.75;100.00
19457;BME280;9867;48.094;11.478;2023-04-05T06:23:59;95478.19;;;0.88;100.00
19457;BME280;9867;48.094;11.478;2023-04-05T06:26:27;95475.09;;;0.84;100.00
19457;BME280;9867;48.094;11.478;2023-04-05T06:28:56;95466.72;;;0.84;100.00
19457;BME280;9867;48.094;11.478;2023-04-05T06:31:30;95475.00;;;0.95;100.00
19457;BME280;9867;48.094;11.478;2023-04-05T06:33:59;95474.94;;;1.35;100.00
19457;BME280;9867;48.094;11.478;2023-04-05T06:36:30;95476.41;;;1.48;100.00
19457;BME280;9867;48.094;11.478;2023-04-05T06:38:59;95482.16;;;1.40;100.00
19457;BME280;9867;48.094;11.478;2023-04-05T06:41:27;95473.44;;;1.04;100.00
19457;BME280;9867;48.094;11.478;2023-04-05T06:43:55;95476.13;;;1.31;100.00
19457;BME280;9867;48.094;11.478;2023-04-05T06:46:23;95479.06;;;1.46;100.00
19457;BME280;9867;48.094;11.478;2023-04-05T06:48:52;95469.59;;;1.19;100.00
19457;BME280;9867;48.094;11.478;2023-04-05T06:51:20;95478.75;;;1.11;100.00
19457;BME280;9867;48.094;11.478;2023-04-05T06:53:49;95481.13;;;0.32;100.00
19457;BME280;9867;48.094;11.478;2023-04-05T06:56:17;95458.88;;;0.16;100.00
19457;BME280;9867;48.094;11.478;2023-04-05T06:58:45;95481.31;;;0.40;100.00
19457;BME280;9867;48.094;11.478;2023-04-05T07:01:13;95464.75;;;0.47;100.00
19457;BME280;9867;48.094;11.478;2023-04-05T07:03:42;95467.13;;;0.49;100.00
19457;BME280;9867;48.094;11.478;2023-04-05T07:06:11;95471.03;;;0.32;100.00
19457;BME280;9867;48.094;11.478;2023-04-05T07:08:39;95468.63;;;0.21;100.00
19457;BME280;9867;48.094;11.478;2023-04-05T07:11:09;95463.72;;;0.29;100.00
19457;BME280;9867;48.094;11.478;2023-04-05T07:13:37;95468.22;;;0.56;100.00
19457;BME280;9867;48.094;11.478;2023-04-05T07:16:05;95477.19;;;0.70;100.00
19457;BME280;9867;48.094;11.478;2023-04-05T07:18:33;95461.13;;;0.80;100.00
19457;BME280;9867;48.094;11.478;2023-04-05T07:21:01;95457.31;;;0.86;100.00
19457;BME280;9867;48.094;11.478;2023-04-05T07:23:30;95461.47;;;1.06;100.00
19457;BME280;9867;48.094;11.478;2023-04-05T07:25:59;95462.81;;;1.10;100.00
19457;BME280;9867;48.094;11.478;2023-04-05T07:28:31;95467.06;;;1.19;100.00
19457;BME280;9867;48.094;11.478;2023-04-05T07:31:02;95468.69;;;1.30;100.00
19457;BME280;9867;48.094;11.478;2023-04-05T07:33:30;95466.69;;;1.24;100.00
19457;BME280;9867;48.094;11.478;2023-04-05T07:35:58;95475.84;;;1.25;100.00
19457;BME280;9867;48.094;11.478;2023-04-05T07:38:27;95475.84;;;1.15;100.00
19457;BME280;9867;48.094;11.478;2023-04-05T07:40:55;95476.00;;;1.43;100.00
19457;BME280;9867;48.094;11.478;2023-04-05T07:43:24;95469.50;;;1.50;100.00
19457;BME280;9867;48.094;11.478;2023-04-05T07:46:00;95484.66;;;1.69;100.00
19457;BME280;9867;48.094;11.478;2023-04-05T07:48:28;95476.56;;;1.75;100.00
19457;BME280;9867;48.094;11.478;2023-04-05T07:51:01;95484.13;;;1.85;100.00
19457;BME280;9867;48.094;11.478;2023-04-05T07:53:29;95487.19;;;1.79;100.00
19457;BME280;9867;48.094;11.478;2023-04-05T07:55:57;95481.88;;;1.62;100.00
19457;BME280;9867;48.094;11.478;2023-04-05T07:58:25;95494.78;;;1.69;100.00
19457;BME280;9867;48.094;11.478;2023-04-05T08:00:59;95489.06;;;1.86;100.00
19457;BME280;9867;48.094;11.478;2023-04-05T08:03:27;95483.72;;;1.99;100.00
19457;BME280;9867;48.094;11.478;2023-04-05T08:05:56;95489.44;;;1.91;100.00
19457;BME280;9867;48.094;11.478;2023-04-05T08:08:24;95489.31;;;2.12;100.00
19457;BME280;9867;48.094;11.478;2023-04-05T08:10:52;95485.75;;;2.42;100.00
19457;BME280;9867;48.094;11.478;2023-04-05T08:13:19;95482.56;;;2.40;100.00
19457;BME280;9867;48.094;11.478;2023-04-05T08:15:47;95490.66;;;2.53;100.00
19457;BME280;9867;48.094;11.478;2023-04-05T08:18:17;95485.81;;;2.69;100.00
19457;BME280;9867;48.094;11.478;2023-04-05T08:20:49;95490.41;;;2.56;100.00
19457;BME280;9867;48.094;11.478;2023-04-05T08:23:17;95475.94;;;2.29;100.00
19457;BME280;9867;48.094;11.478;2023-04-05T08:25:45;95489.31;;;2.59;100.00
19457;BME280;9867;48.094;11.478;2023-04-05T08:28:13;95491.78;;;2.78;100.00
19457;BME280;9867;48.094;11.478;2023-04-05T08:30:41;95490.59;;;3.00;100.00
19457;BME280;9867;48.094;11.478;2023-04-05T08:33:11;95485.44;;;3.19;100.00
19457;BME280;9867;48.094;11.478;2023-04-05T08:35:40;95480.22;;;3.21;100.00
19457;BME280;9867;48.094;11.478;2023-04-05T08:38:09;95465.78;;;3.03;100.00
19457;BME280;9867;48.094;11.478;2023-04-05T08:40:40;95482.19;;;3.27;100.00
19457;BME280;9867;48.094;11.478;2023-04-05T08:43:10;95476.19;;;3.46;100.00
19457;BME280;9867;48.094;11.478;2023-04-05T08:45:46;95476.69;;;3.67;99.47
19457;BME280;9867;48.094;11.478;2023-04-05T08:48:15;95489.66;;;3.46;95.63
19457;BME280;9867;48.094;11.478;2023-04-05T08:50:50;95475.97;;;2.94;93.65
19457;BME280;9867;48.094;11.478;2023-04-05T08:53:18;95473.84;;;3.17;100.00
19457;BME280;9867;48.094;11.478;2023-04-05T08:55:48;95479.00;;;3.60;100.00
19457;BME280;9867;48.094;11.478;2023-04-05T08:58:19;95476.19;;;3.99;86.29
19457;BME280;9867;48.094;11.478;2023-04-05T09:00:49;95482.75;;;4.09;82.81
19457;BME280;9867;48.094;11.478;2023-04-05T09:03:21;95474.69;;;4.40;71.54
19457;BME280;9867;48.094;11.478;2023-04-05T09:05:51;95482.00;;;4.17;69.54
19457;BME280;9867;48.094;11.478;2023-04-05T09:08:20;95481.56;;;4.22;71.31
19457;BME280;9867;48.094;11.478;2023-04-05T09:10:48;95481.66;;;4.12;72.96
19457;BME280;9867;48.094;11.478;2023-04-05T09:13:17;95478.84;;;3.97;76.08
19457;BME280;9867;48.094;11.478;2023-04-05T09:15:45;95478.88;;;4.23;71.49
19457;BME280;9867;48.094;11.478;2023-04-05T09:18:13;95478.22;;;3.95;64.69
19457;BME280;9867;48.094;11.478;2023-04-05T09:21:01;95476.06;;;3.47;64.12
19457;BME280;9867;48.094;11.478;2023-04-05T09:23:29;95472.56;;;3.48;65.83
19457;BME280;9867;48.094;11.478;2023-04-05T09:25:57;95481.06;;;3.74;70.68
19457;BME280;9867;48.094;11.478;2023-04-05T09:28:39;95474.63;;;4.06;70.26
19457;BME280;9867;48.094;11.478;2023-04-05T09:31:08;95468.75;;;4.31;70.37
19457;BME280;9867;48.094;11.478;2023-04-05T09:33:36;95468.91;;;4.56;66.55
19457;BME280;9867;48.094;11.478;2023-04-05T09:36:06;95465.97;;;4.76;65.56
19457;BME280;9867;48.094;11.478;2023-04-05T09:38:44;95473.59;;;4.76;61.88
19457;BME280;9867;48.094;11.478;2023-04-05T09:41:13;95472.66;;;4.77;60.76
19457;BME280;9867;48.094;11.478;2023-04-05T09:43:41;95480.66;;;4.91;60.74
19457;BME280;9867;48.094;11.478;2023-04-05T09:46:30;95471.13;;;5.51;60.21
19457;BME280;9867;48.094;11.478;2023-04-05T09:49:00;95472.09;;;5.74;57.14
19457;BME280;9867;48.094;11.478;2023-04-05T09:51:34;95468.75;;;5.41;55.79
19457;BME280;9867;48.094;11.478;2023-04-05T09:54:06;95470.44;;;5.17;54.43
19457;BME280;9867;48.094;11.478;2023-04-05T09:56:37;95465.31;;;4.66;54.64
19457;BME280;9867;48.094;11.478;2023-04-05T09:59:06;95470.09;;;4.69;56.25
19457;BME280;9867;48.094;11.478;2023-04-05T10:01:35;95472.47;;;5.13;55.45
19457;BME280;9867;48.094;11.478;2023-04-05T10:04:06;95463.81;;;5.48;56.92
19457;BME280;9867;48.094;11.478;2023-04-05T10:06:37;95458.94;;;5.95;55.32
19457;BME280;9867;48.094;11.478;2023-04-05T10:09:06;95465.59;;;6.21;54.98
19457;BME280;9867;48.094;11.478;2023-04-05T10:11:36;95452.06;;;6.20;53.38
19457;BME280;9867;48.094;11.478;2023-04-05T10:14:06;95467.50;;;6.27;53.02
19457;BME280;9867;48.094;11.478;2023-04-05T10:16:37;95450.47;;;5.54;51.51
19457;BME280;9867;48.094;11.478;2023-04-05T10:19:15;95462.41;;;5.78;55.13
19457;BME280;9867;48.094;11.478;2023-04-05T10:21:51;95450.00;;;5.91;52.60
19457;BME280;9867;48.094;11.478;2023-04-05T10:24:32;95455.88;;;6.24;56.25
19457;BME280;9867;48.094;11.478;2023-04-05T10:27:04;95450.00;;;5.75;53.29
19457;BME280;9867;48.094;11.478;2023-04-05T10:29:38;95452.75;;;5.90;53.04
19457;BME280;9867;48.094;11.478;2023-04-05T10:32:13;95447.44;;;6.15;54.44
19457;BME280;9867;48.094;11.478;2023-04-05T10:34:50;95457.34;;;6.10;51.41
19457;BME280;9867;48.094;11.478;2023-04-05T10:37:28;95451.13;;;5.64;52.06
19457;BME280;9867;48.094;11.478;2023-04-05T10:40:01;95448.44;;;6.06;57.46
19457;BME280;9867;48.094;11.478;2023-04-05T10:42:35;95445.88;;;6.06;56.12
19457;BME280;9867;48.094;11.478;2023-04-05T10:45:06;95453.97;;;6.26;54.00
19457;BME280;9867;48.094;11.478;2023-04-05T10:47:41;95432.66;;;5.87;52.03
19457;BME280;9867;48.094;11.478;2023-04-05T10:50:16;95446.88;;;5.89;54.14
19457;BME280;9867;48.094;11.478;2023-04-05T10:52:49;95430.59;;;6.78;57.36
19457;BME280;9867;48.094;11.478;2023-04-05T10:55:18;95432.56;;;6.99;54.01
19457;BME280;9867;48.094;11.478;2023-04-05T10:57:47;95428.66;;;6.16;49.12
19457;BME280;9867;48.094;11.478;2023-04-05T11:00:16;95424.53;;;6.32;54.48
19457;BME280;9867;48.094;11.478;2023-04-05T11:02:46;95429.09;;;6.92;53.42
19457;BME280;9867;48.094;11.478;2023-04-05T11:05:29;95429.28;;;6.27;51.68
19457;BME280;9867;48.094;11.478;2023-04-05T11:08:03;95426.91;;;6.80;54.23
19457;BME280;9867;48.094;11.478;2023-04-05T11:10:33;95426.69;;;6.59;55.07
19457;BME280;9867;48.094;11.478;2023-04-05T11:13:06;95423.78;;;7.01;51.96
19457;BME280;9867;48.094;11.478;2023-04-05T11:15:35;95425.56;;;6.93;55.31
19457;BME280;9867;48.094;11.478;2023-04-05T11:18:07;95422.09;;;7.16;51.52
19457;BME280;9867;48.094;11.478;2023-04-05T11:20:41;95422.94;;;7.09;49.34
19457;BME280;9867;48.094;11.478;2023-04-05T11:23:14;95417.78;;;7.48;51.22
19457;BME280;9867;48.094;11.478;2023-04-05T11:25:47;95418.03;;;7.07;50.32
19457;BME280;9867;48.094;11.478;2023-04-05T11:28:27;95417.81;;;7.40;53.25
19457;BME280;9867;48.094;11.478;2023-04-05T11:30:56;95414.03;;;7.96;52.92
19457;BME280;9867;48.094;11.478;2023-04-05T11:33:57;95414.84;;;8.49;51.48
19457;BME280;9867;48.094;11.478;2023-04-05T11:36:34;95411.56;;;7.42;45.11
19457;BME280;9867;48.094;11.478;2023-04-05T11:39:24;95414.00;;;7.81;49.17
19457;BME280;9867;48.094;11.478;2023-04-05T11:41:58;95411.56;;;7.88;47.25
19457;BME280;9867;48.094;11.478;2023-04-05T11:44:27;95407.06;;;7.90;47.89
19457;BME280;9867;48.094;11.478;2023-04-05T11:46:55;95401.16;;;7.90;45.53
19457;BME280;9867;48.094;11.478;2023-04-05T11:49:24;95406.88;;;7.08;45.72
19457;BME280;9867;48.094;11.478;2023-04-05T11:51:52;95401.16;;;7.52;48.44
19457;BME280;9867;48.094;11.478;2023-04-05T11:54:33;95400.63;;;7.79;49.71
19457;BME280;9867;48.094;11.478;2023-04-05T11:57:01;95396.94;;;7.13;48.71
19457;BME280;9867;48.094;11.478;2023-04-05T11:59:30;95393.16;;;7.93;51.94
19457;BME280;9867;48.094;11.478;2023-04-05T12:02:00;95387.56;;;8.27;50.02
19457;BME280;9867;48.094;11.478;2023-04-05T12:04:29;95383.53;;;8.62;48.23
19457;BME280;9867;48.094;11.478;2023-04-05T12:07:10;95385.06;;;8.92;47.61
19457;BME280;9867;48.094;11.478;2023-04-05T12:10:00;95382.25;;;8.87;44.27
19457;BME280;9867;48.094;11.478;2023-04-05T12:12:33;95383.25;;;9.07;42.66
19457;BME280;9867;48.094;11.478;2023-04-05T12:15:01;95387.88;;;9.33;45.24
19457;BME280;9867;48.094;11.478;2023-04-05T12:17:42;95389.16;;;9.44;44.47
19457;BME280;9867;48.094;11.478;2023-04-05T12:20:12;95386.72;;;9.57;47.89
19457;BME280;9867;48.094;11.478;2023-04-05T12:22:41;95385.16;;;8.84;45.79
19457;BME280;9867;48.094;11.478;2023-04-05T12:25:12;95381.88;;;7.87;45.25
19457;BME280;9867;48.094;11.478;2023-04-05T12:27:40;95379.81;;;7.82;46.25
19457;BME280;9867;48.094;11.478;2023-04-05T12:30:11;95377.94;;;8.87;52.11
19457;BME280;9867;48.094;11.478;2023-04-05T12:32:45;95384.13;;;8.78;47.38
19457;BME280;9867;48.094;11.478;2023-04-05T12:35:17;95380.88;;;8.70;46.29
19457;BME280;9867;48.094;11.478;2023-04-05T12:37:45;95371.13;;;8.95;47.80
19457;BME280;9867;48.094;11.478;2023-04-05T12:40:19;95377.25;;;9.36;47.89
19457;BME280;9867;48.094;11.478;2023-04-05T12:42:47;95385.16;;;9.84;49.20
19457;BME280;9867;48.094;11.478;2023-04-05T12:45:15;95386.63;;;9.50;44.82
19457;BME280;9867;48.094;11.478;2023-04-05T12:47:48;95380.00;;;9.35;46.01
19457;BME280;9867;48.094;11.478;2023-04-05T12:50:18;95372.63;;;9.25;44.22
19457;BME280;9867;48.094;11.478;2023-04-05T12:52:55;95357.63;;;8.35;41.96
19457;BME280;9867;48.094;11.478;2023-04-05T12:55:26;95378.72;;;7.62;42.14
19457;BME280;9867;48.094;11.478;2023-04-05T12:57:56;95360.06;;;7.16;42.69
19457;BME280;9867;48.094;11.478;2023-04-05T13:00:27;95374.88;;;6.98;42.73
19457;BME280;9867;48.094;11.478;2023-04-05T13:02:57;95370.53;;;7.52;45.52
19457;BME280;9867;48.094;11.478;2023-04-05T13:05:27;95364.28;;;7.55;44.82
19457;BME280;9867;48.094;11.478;2023-04-05T13:07:55;95358.19;;;7.93;41.79
19457;BME280;9867;48.094;11.478;2023-04-05T13:10:25;95352.72;;;8.84;45.91
19457;BME280;9867;48.094;11.478;2023-04-05T13:12:53;95352.56;;;8.71;43.38
19457;BME280;9867;48.094;11.478;2023-04-05T13:15:21;95336.94;;;9.45;45.14
19457;BME280;9867;48.094;11.478;2023-04-05T13:17:49;95353.00;;;10.37;44.80
19457;BME280;9867;48.094;11.478;2023-04-05T13:20:19;95342.28;;;10.27;47.94
19457;BME280;9867;48.094;11.478;2023-04-05T13:22:48;95334.97;;;10.24;41.97